Terminal Aerodrome Forecast
Issued by NWS

Home | Current Version | Previous Version | Graphics & Text | Print | Product List | Glossary On
Versions: 1 2 3 4 5 6 7 8 9 10 11 12 13 14 15 16 17 18 19 20
000
FTUS43 KABR 272327
TAFMBG
TAF
KMBG 272327Z 2800/2824 VRB04KT P6SM SCT200
     FM280600 VRB03KT 3SM BR SKC
     FM281000 VRB03KT 1SM BR SKC
     FM281500 18005KT P6SM SKC=

USA.gov is the U.S. government's official web portal to all federal, state and local government web resources and services.